Time;durP1;ratioP1;P1;durP2;ratioP2;P2;SDS_P1;SDS_P2;PMS_P1;PMS_P2;Temp;Humidity;BMP_temperature;BMP_pressure;BME280_temperature;BME280_humidity;BME280_pressure;Samples;Min_cycle;Max_cycle;Signal;HPM_P1;HPM_P2
2022/04/08 00:01:57;;;;;;;2.90;0.73;;;10.80;74.20;;;;;;5114221;28;20210;-63
2022/04/08 00:04:26;;;;;;;1.80;0.80;;;10.70;74.20;;;;;;5093318;28;20191;-63
2022/04/08 00:06:53;;;;;;;1.60;0.50;;;10.70;74.30;;;;;;5093549;28;20200;-64
2022/04/08 00:09:20;;;;;;;1.40;0.60;;;10.60;73.90;;;;;;5110600;28;20630;-64
2022/04/08 00:11:46;;;;;;;1.70;0.60;;;10.60;73.00;;;;;;5113849;28;20671;-64
2022/04/08 00:14:13;;;;;;;1.50;0.50;;;10.50;73.90;;;;;;5095972;28;20247;-64
2022/04/08 00:16:40;;;;;;;2.45;0.70;;;10.60;73.70;;;;;;5093409;28;20267;-64
2022/04/08 00:19:07;;;;;;;1.70;0.70;;;10.60;74.50;;;;;;5108684;28;20275;-64
2022/04/08 00:21:36;;;;;;;1.50;0.60;;;10.60;74.70;;;;;;5113680;28;20224;-64
2022/04/08 00:24:03;;;;;;;1.50;0.57;;;10.50;74.90;;;;;;5098360;28;20212;-65
2022/04/08 00:26:30;;;;;;;3.22;0.60;;;10.40;77.00;;;;;;5093247;28;20200;-63
2022/04/08 00:28:57;;;;;;;2.50;0.70;;;10.50;77.70;;;;;;5105364;28;20216;-64
2022/04/08 00:31:24;;;;;;;1.95;0.88;;;10.40;77.10;;;;;;5113335;28;20223;-64
2022/04/08 00:33:50;;;;;;;1.80;0.70;;;10.40;78.30;;;;;;5100813;28;20644;-64
2022/04/08 00:36:17;;;;;;;1.60;0.60;;;10.40;78.90;;;;;;5093192;28;20188;-63
2022/04/08 00:38:46;;;;;;;1.50;0.60;;;10.40;79.30;;;;;;5102248;28;20267;-64
2022/04/08 00:41:14;;;;;;;1.92;0.60;;;10.50;79.20;;;;;;5113214;28;20224;-64
2022/04/08 00:43:41;;;;;;;2.03;0.68;;;10.40;79.10;;;;;;5103061;28;20224;-64
2022/04/08 00:46:10;;;;;;;1.70;0.60;;;10.30;79.20;;;;;;5097506;28;20276;-64
2022/04/08 00:48:37;;;;;;;2.35;0.70;;;10.30;78.20;;;;;;5112924;28;20735;-64
2022/04/08 00:51:05;;;;;;;2.90;0.75;;;10.30;78.50;;;;;;5097461;28;20263;-64
2022/04/08 00:53:33;;;;;;;1.50;0.60;;;10.40;78.30;;;;;;5092866;28;20307;-64
2022/04/08 00:56:03;;;;;;;1.60;0.70;;;10.40;78.10;;;;;;5105303;28;20670;-63
2022/04/08 00:58:31;;;;;;;1.60;0.60;;;10.50;78.20;;;;;;5108323;28;20280;-63
2022/04/08 01:00:58;;;;;;;1.65;0.57;;;10.50;78.40;;;;;;5092830;28;20196;-64
2022/04/08 01:03:25;;;;;;;1.50;0.60;;;10.60;78.70;;;;;;5094872;28;20226;-63
2022/04/08 01:05:52;;;;;;;2.40;0.50;;;10.60;79.30;;;;;;5113114;28;20245;-63
2022/04/08 01:08:19;;;;;;;2.35;0.70;;;10.60;79.10;;;;;;5110745;28;20216;-64
2022/04/08 01:10:48;;;;;;;1.50;0.60;;;10.70;80.30;;;;;;5092416;28;20631;-63
2022/04/08 01:13:16;;;;;;;1.40;0.50;;;10.70;80.40;;;;;;5092567;28;20223;-69
2022/04/08 01:15:43;;;;;;;1.65;0.60;;;10.70;80.90;;;;;;5112649;28;20220;-64
2022/04/08 01:18:10;;;;;;;1.60;0.70;;;10.80;80.90;;;;;;5112484;28;20253;-64
2022/04/08 01:20:37;;;;;;;3.58;0.50;;;10.80;81.30;;;;;;5092379;28;20185;-63
2022/04/08 01:23:05;;;;;;;1.70;0.60;;;10.80;81.80;;;;;;5096498;28;20231;-66
2022/04/08 01:25:33;;;;;;;2.45;0.60;;;10.80;81.40;;;;;;5114748;28;20647;-64
2022/04/08 01:28:00;;;;;;;3.25;0.60;;;10.90;81.70;;;;;;5114573;28;20216;-64
2022/04/08 01:30:28;;;;;;;1.73;0.60;;;10.90;83.00;;;;;;5116826;28;20192;-63
2022/04/08 01:32:55;;;;;;;1.40;0.57;;;10.80;83.00;;;;;;5099791;28;20538;-63
2022/04/08 01:35:21;;;;;;;2.67;0.60;;;10.80;83.50;;;;;;5096206;28;20217;-64
2022/04/08 01:37:48;;;;;;;1.50;0.60;;;10.90;84.00;;;;;;5110495;28;20607;-63
2022/04/08 01:40:17;;;;;;;1.60;0.50;;;10.90;84.60;;;;;;5116720;28;20241;-64
2022/04/08 01:42:45;;;;;;;5.07;0.70;;;10.80;84.60;;;;;;5102424;28;20268;-64
2022/04/08 01:45:12;;;;;;;1.50;0.50;;;10.80;85.20;;;;;;5096150;28;20232;-64
2022/04/08 01:47:39;;;;;;;1.50;0.50;;;10.90;84.90;;;;;;5107939;28;20184;-64
2022/04/08 01:50:07;;;;;;;1.60;0.50;;;10.90;84.70;;;;;;5116562;28;20223;-63
2022/04/08 01:52:34;;;;;;;1.50;0.60;;;10.90;84.90;;;;;;5104839;28;20189;-66
2022/04/08 01:55:01;;;;;;;2.40;0.60;;;10.90;85.60;;;;;;5095973;28;20262;-63
2022/04/08 01:57:30;;;;;;;1.73;0.70;;;10.90;84.50;;;;;;5114074;28;20192;-63
2022/04/08 01:59:58;;;;;;;1.75;0.75;;;10.90;83.50;;;;;;5116351;28;20241;-63
2022/04/08 02:02:25;;;;;;;1.50;0.60;;;10.80;83.30;;;;;;5097850;28;20189;-63
2022/04/08 02:04:52;;;;;;;1.50;0.60;;;10.80;83.50;;;;;;5095759;28;20227;-64
2022/04/08 02:07:19;;;;;;;2.35;0.70;;;10.80;83.70;;;;;;5111424;28;20184;-64
2022/04/08 02:09:46;;;;;;;1.80;0.60;;;10.80;84.00;;;;;;5116284;28;20231;-64
2022/04/08 02:12:13;;;;;;;2.03;0.90;;;10.80;84.70;;;;;;5100441;28;20216;-64
2022/04/08 02:14:40;;;;;;;1.98;0.70;;;10.80;85.50;;;;;;5095622;28;20248;-64
2022/04/08 02:17:08;;;;;;;1.60;0.60;;;10.80;84.50;;;;;;5108156;28;20257;-64
2022/04/08 02:19:35;;;;;;;1.40;0.50;;;10.70;84.60;;;;;;5116128;28;20237;-64
2022/04/08 02:22:03;;;;;;;2.15;0.60;;;10.80;84.70;;;;;;5102936;28;20201;-63
2022/04/08 02:24:30;;;;;;;1.92;0.70;;;10.70;84.30;;;;;;5095466;28;20257;-64
2022/04/08 02:26:57;;;;;;;2.03;0.90;;;10.70;84.60;;;;;;5105643;28;20207;-64
2022/04/08 02:29:24;;;;;;;2.03;0.75;;;10.70;84.90;;;;;;5115776;28;20635;-63
2022/04/08 02:31:52;;;;;;;1.70;0.68;;;10.60;83.30;;;;;;5104906;28;20177;-64
2022/04/08 02:34:20;;;;;;;1.70;0.60;;;10.70;83.80;;;;;;5095144;28;20215;-63
2022/04/08 02:36:50;;;;;;;1.48;0.52;;;10.60;83.20;;;;;;5103215;28;20288;-63
2022/04/08 02:39:17;;;;;;;2.67;0.70;;;10.60;83.10;;;;;;5115721;28;20283;-64
2022/04/08 02:41:44;;;;;;;1.40;0.57;;;10.60;83.00;;;;;;5107215;28;20684;-64
2022/04/08 02:44:11;;;;;;;2.85;0.85;;;10.60;82.40;;;;;;5095228;28;20280;-64
2022/04/08 02:46:38;;;;;;;1.70;0.70;;;10.60;82.20;;;;;;5109597;28;20658;-64
2022/04/08 02:49:05;;;;;;;1.40;0.60;;;10.60;82.60;;;;;;5115496;28;20193;-65
2022/04/08 02:51:34;;;;;;;1.50;0.60;;;10.60;82.40;;;;;;5101269;28;20213;-64
2022/04/08 02:54:01;;;;;;;1.60;0.60;;;10.60;82.30;;;;;;5106442;28;20273;-64
2022/04/08 02:56:27;;;;;;;1.50;0.60;;;10.70;82.70;;;;;;5115617;28;20242;-63
2022/04/08 02:58:57;;;;;;;1.60;0.68;;;10.70;84.10;;;;;;5103587;28;20203;-64
2022/04/08 03:01:24;;;;;;;1.40;0.50;;;10.70;83.80;;;;;;5094892;28;20192;-64
2022/04/08 03:03:51;;;;;;;1.85;0.80;;;10.60;82.80;;;;;;5103848;28;20639;-64
2022/04/08 03:06:18;;;;;;;1.40;0.60;;;10.70;83.10;;;;;;5115069;28;20639;-63
2022/04/08 03:08:46;;;;;;;1.70;0.60;;;10.60;82.80;;;;;;5106236;28;20216;-63
2022/04/08 03:11:13;;;;;;;1.75;0.77;;;10.60;82.30;;;;;;5095583;28;20276;-64
2022/04/08 03:13:40;;;;;;;1.70;0.60;;;10.60;82.80;;;;;;5114225;28;20587;-64
2022/04/08 03:16:07;;;;;;;2.05;0.70;;;10.60;82.40;;;;;;5113860;28;20298;-65
2022/04/08 03:18:34;;;;;;;1.40;0.50;;;10.60;82.80;;;;;;5096796;28;20219;-64
2022/04/08 03:21:01;;;;;;;1.50;0.60;;;10.60;82.20;;;;;;5094466;28;20193;-64
2022/04/08 03:23:28;;;;;;;1.60;0.57;;;10.60;81.80;;;;;;5094867;28;20589;-64
2022/04/08 03:25:57;;;;;;;1.60;0.60;;;10.60;81.70;;;;;;5094042;28;20268;-63
2022/04/08 03:28:24;;;;;;;1.40;0.60;;;10.60;81.90;;;;;;5094334;28;20228;-63
2022/04/08 03:30:50;;;;;;;1.40;0.50;;;10.60;82.00;;;;;;5111307;28;20618;-63
2022/04/08 03:33:17;;;;;;;3.05;0.60;;;10.60;82.80;;;;;;5114560;28;20291;-63
2022/04/08 03:35:44;;;;;;;1.50;0.60;;;10.60;82.50;;;;;;5097841;28;20299;-64
2022/04/08 03:38:11;;;;;;;1.70;0.60;;;10.50;82.70;;;;;;5094374;28;20225;-64
2022/04/08 03:40:38;;;;;;;1.40;0.50;;;10.60;82.40;;;;;;5107919;28;20551;-65
2022/04/08 03:43:07;;;;;;;1.70;0.60;;;10.60;82.00;;;;;;5114605;28;20223;-63
2022/04/08 03:45:33;;;;;;;1.60;0.60;;;10.60;82.20;;;;;;5099766;28;20280;-64
2022/04/08 03:48:00;;;;;;;2.03;0.80;;;10.60;82.50;;;;;;5094275;28;20189;-64
2022/04/08 03:50:27;;;;;;;2.67;0.60;;;10.60;82.10;;;;;;5105495;28;20271;-63
2022/04/08 03:52:54;;;;;;;3.40;0.80;;;10.60;82.10;;;;;;5114654;28;20275;-64
2022/04/08 03:55:21;;;;;;;1.40;0.50;;;10.60;82.60;;;;;;5102933;28;20559;-64
2022/04/08 03:57:48;;;;;;;2.13;0.60;;;10.50;82.80;;;;;;5093610;28;20189;-64
2022/04/08 04:00:17;;;;;;;1.70;0.70;;;10.60;82.40;;;;;;5101274;28;20279;-65
2022/04/08 04:02:44;;;;;;;2.95;1.40;;;10.50;82.60;;;;;;5114660;28;20188;-64
2022/04/08 04:05:11;;;;;;;3.53;0.85;;;10.60;83.00;;;;;;5105626;28;20284;-64
2022/04/08 04:07:39;;;;;;;2.45;0.80;;;10.60;83.20;;;;;;5093932;28;20244;-63
2022/04/08 04:10:07;;;;;;;1.60;0.70;;;10.50;82.90;;;;;;5100070;28;20530;-64
2022/04/08 04:12:34;;;;;;;4.70;0.90;;;10.50;82.10;;;;;;5114450;28;20220;-64
2022/04/08 04:15:03;;;;;;;1.50;0.60;;;10.50;81.70;;;;;;5102224;28;20675;-64
2022/04/08 04:17:32;;;;;;;2.00;0.60;;;10.50;81.50;;;;;;5093756;28;20274;-64
2022/04/08 04:19:59;;;;;;;2.72;0.80;;;10.40;80.50;;;;;;5103577;28;20216;-64
2022/04/08 04:22:26;;;;;;;1.95;0.93;;;10.40;81.00;;;;;;5113922;28;20260;-65
2022/04/08 04:24:56;;;;;;;2.03;0.90;;;10.40;80.90;;;;;;5104597;28;20543;-64
2022/04/08 04:27:23;;;;;;;1.90;0.82;;;10.40;80.90;;;;;;5093408;28;20238;-65
2022/04/08 04:29:50;;;;;;;1.95;0.80;;;10.40;81.50;;;;;;5100860;28;20592;-63
2022/04/08 04:32:19;;;;;;;2.05;0.80;;;10.40;81.20;;;;;;5111362;28;20188;-64
2022/04/08 04:34:47;;;;;;;5.32;1.55;;;10.40;81.50;;;;;;5106332;28;20220;-64
2022/04/08 04:37:14;;;;;;;2.78;0.88;;;10.40;81.80;;;;;;5093615;28;20239;-66
2022/04/08 04:39:41;;;;;;;2.40;0.88;;;10.30;82.20;;;;;;5097758;28;20177;-64
2022/04/08 04:42:08;;;;;;;1.90;0.70;;;10.30;81.70;;;;;;5113348;28;20227;-64
2022/04/08 04:44:35;;;;;;;2.30;0.90;;;10.30;81.70;;;;;;5109154;28;20242;-63
2022/04/08 04:47:04;;;;;;;1.50;0.60;;;10.20;81.10;;;;;;5093267;28;20515;-64
2022/04/08 04:49:30;;;;;;;2.30;1.38;;;10.20;80.60;;;;;;5095780;28;20201;-63
2022/04/08 04:51:59;;;;;;;1.60;0.65;;;10.10;80.90;;;;;;5113555;28;20197;-64
2022/04/08 04:54:26;;;;;;;4.88;1.08;;;10.10;81.10;;;;;;5110990;28;20581;-63
2022/04/08 04:56:52;;;;;;;1.98;0.90;;;10.10;81.30;;;;;;5093044;28;20243;-63
2022/04/08 04:59:19;;;;;;;1.70;0.70;;;10.10;81.50;;;;;;5092967;28;20236;-69
2022/04/08 05:01:46;;;;;;;3.15;0.70;;;10.10;81.70;;;;;;5102579;28;20181;-64
2022/04/08 05:04:13;;;;;;;4.53;1.00;;;10.20;82.00;;;;;;5093149;28;20185;-63
2022/04/08 05:06:43;;;;;;;3.05;1.00;;;10.10;82.00;;;;;;5111512;28;20202;-64
2022/04/08 05:09:11;;;;;;;2.42;0.70;;;10.10;82.80;;;;;;5113652;28;20237;-64
2022/04/08 05:11:38;;;;;;;2.10;0.90;;;10.10;83.30;;;;;;5094014;28;20188;-63
2022/04/08 05:14:05;;;;;;;3.65;1.10;;;10.10;83.60;;;;;;5093194;28;20284;-64
2022/04/08 05:16:32;;;;;;;2.28;0.75;;;10.10;83.30;;;;;;5096512;28;20246;-65
2022/04/08 05:18:59;;;;;;;3.20;0.85;;;10.10;83.00;;;;;;5091013;28;20288;-64
2022/04/08 05:21:29;;;;;;;1.60;0.70;;;10.10;82.80;;;;;;5091237;28;20275;-63
2022/04/08 05:23:56;;;;;;;1.80;0.60;;;10.10;82.50;;;;;;5090823;28;20594;-64
2022/04/08 05:26:24;;;;;;;2.08;0.68;;;10.10;82.60;;;;;;5093013;28;20235;-63
2022/04/08 05:28:51;;;;;;;2.55;0.55;;;10.10;82.60;;;;;;5095449;28;20269;-63
2022/04/08 05:31:18;;;;;;;2.00;0.80;;;10.10;82.80;;;;;;5090480;28;20212;-65
2022/04/08 05:33:45;;;;;;;2.13;0.60;;;10.10;82.90;;;;;;5091033;28;20292;-64
2022/04/08 05:36:12;;;;;;;2.20;0.70;;;10.10;82.70;;;;;;5093505;28;20209;-64
2022/04/08 05:38:39;;;;;;;1.90;0.90;;;10.20;82.80;;;;;;5091537;28;20220;-64
2022/04/08 05:41:06;;;;;;;2.25;0.80;;;10.20;82.80;;;;;;5090980;28;20602;-66
2022/04/08 05:43:34;;;;;;;1.80;0.63;;;10.20;83.50;;;;;;5090875;28;20268;-64
2022/04/08 05:46:01;;;;;;;1.48;0.70;;;10.20;82.90;;;;;;5091198;28;20699;-64
2022/04/08 05:48:28;;;;;;;2.30;0.70;;;10.20;82.60;;;;;;5090545;28;20228;-63
2022/04/08 05:50:54;;;;;;;1.50;0.60;;;10.20;82.10;;;;;;5090318;28;20260;-64
2022/04/08 05:53:22;;;;;;;2.03;0.95;;;10.20;82.00;;;;;;5087570;28;20276;-63
2022/04/08 05:55:49;;;;;;;1.75;0.70;;;10.20;82.40;;;;;;5088716;28;20212;-63
2022/04/08 05:58:16;;;;;;;1.70;0.70;;;10.10;83.20;;;;;;5091218;28;20719;-64
2022/04/08 06:00:46;;;;;;;2.40;0.73;;;10.20;83.00;;;;;;5090037;28;20189;-66
2022/04/08 06:03:13;;;;;;;2.00;1.20;;;10.20;82.90;;;;;;5090773;28;20181;-64
2022/04/08 06:05:40;;;;;;;1.98;0.82;;;10.20;82.70;;;;;;5090343;28;20287;-64
2022/04/08 06:08:07;;;;;;;1.60;0.80;;;10.20;82.60;;;;;;5092192;28;20604;-64
2022/04/08 06:10:35;;;;;;;2.13;0.70;;;10.30;82.80;;;;;;5095678;28;20193;-64
2022/04/08 06:13:02;;;;;;;1.80;0.90;;;10.30;82.70;;;;;;5094862;28;20181;-64
2022/04/08 06:15:31;;;;;;;2.28;0.93;;;10.30;83.10;;;;;;5093378;28;20213;-64
2022/04/08 06:18:00;;;;;;;1.60;0.70;;;10.40;83.70;;;;;;5093021;28;20223;-64
2022/04/08 06:20:27;;;;;;;2.47;1.00;;;10.40;83.90;;;;;;5090117;28;20267;-64
2022/04/08 06:22:54;;;;;;;2.58;0.90;;;10.50;84.30;;;;;;5094727;28;20201;-66
2022/04/08 06:25:23;;;;;;;2.08;0.80;;;10.60;84.50;;;;;;5095402;28;20189;-63
2022/04/08 06:27:58;;;;;;;2.20;0.93;;;10.70;84.90;;;;;;5093944;28;20272;-64
2022/04/08 06:30:25;;;;;;;1.95;1.15;;;10.80;84.70;;;;;;5092359;28;20622;-64
2022/04/08 06:32:51;;;;;;;3.85;1.08;;;10.80;83.80;;;;;;5093111;28;20276;-64
2022/04/08 06:35:20;;;;;;;3.25;1.35;;;10.90;82.80;;;;;;5093984;28;20312;-64
2022/04/08 06:37:47;;;;;;;4.00;1.98;;;10.90;83.40;;;;;;5094163;28;20588;-64
2022/04/08 06:40:15;;;;;;;2.75;1.48;;;11.00;83.80;;;;;;5092967;28;20193;-63
2022/04/08 06:42:42;;;;;;;1.80;0.75;;;10.90;83.20;;;;;;5093992;28;20246;-64
2022/04/08 06:45:10;;;;;;;3.17;0.80;;;11.10;83.60;;;;;;5093170;28;20238;-63
2022/04/08 06:47:46;;;;;;;2.60;1.10;;;11.20;83.10;;;;;;5092757;28;20670;-67
2022/04/08 06:50:13;;;;;;;3.15;1.05;;;11.20;81.70;;;;;;5095840;28;20544;-63
2022/04/08 06:52:41;;;;;;;2.05;1.40;;;11.00;82.60;;;;;;5115802;28;20196;-64
2022/04/08 06:55:09;;;;;;;2.15;1.10;;;10.90;82.40;;;;;;5115457;28;20586;-64
2022/04/08 06:57:36;;;;;;;2.80;1.02;;;10.70;81.80;;;;;;5115690;28;20227;-64
2022/04/08 07:00:04;;;;;;;1.95;1.00;;;10.60;83.20;;;;;;5115882;28;20251;-63
2022/04/08 07:02:31;;;;;;;2.45;1.20;;;10.50;84.20;;;;;;5114888;28;20659;-65
2022/04/08 07:04:58;;;;;;;6.28;1.20;;;10.50;85.50;;;;;;5115507;28;20223;-63
2022/04/08 07:07:29;;;;;;;1.80;1.02;;;10.50;85.10;;;;;;5115451;28;20188;-64
2022/04/08 07:10:01;;;;;;;2.38;1.10;;;10.40;85.50;;;;;;5115034;28;20203;-63
2022/04/08 07:12:29;;;;;;;2.22;1.00;;;10.30;86.20;;;;;;5115346;28;20715;-63
2022/04/08 07:14:56;;;;;;;1.70;0.90;;;10.30;85.90;;;;;;5115259;28;20763;-64
2022/04/08 07:17:28;;;;;;;1.90;0.82;;;10.20;86.30;;;;;;5115160;28;20323;-64
2022/04/08 07:19:56;;;;;;;2.88;1.05;;;10.20;86.90;;;;;;5114158;28;20605;-63
2022/04/08 07:22:23;;;;;;;2.55;1.02;;;10.20;87.40;;;;;;5115241;28;20583;-63
2022/04/08 07:24:50;;;;;;;2.10;0.82;;;10.40;87.20;;;;;;5115069;27;20283;-64
2022/04/08 07:27:19;;;;;;;2.72;1.20;;;10.40;87.50;;;;;;5115152;28;20677;-64
2022/04/08 07:29:47;;;;;;;2.13;0.98;;;10.40;88.20;;;;;;5115229;28;20279;-63
2022/04/08 07:32:20;;;;;;;1.90;0.80;;;10.50;88.90;;;;;;5115179;28;20188;-64
2022/04/08 07:34:48;;;;;;;2.50;1.05;;;10.50;88.80;;;;;;5115021;28;20184;-63
2022/04/08 07:37:15;;;;;;;2.00;1.10;;;10.70;88.60;;;;;;5114672;28;20220;-63
2022/04/08 07:39:43;;;;;;;2.55;1.35;;;10.80;87.60;;;;;;5114542;28;20184;-64
2022/04/08 07:42:10;;;;;;;2.40;1.50;;;10.80;87.80;;;;;;5114729;28;20262;-63
2022/04/08 07:44:39;;;;;;;7.32;1.00;;;10.80;88.20;;;;;;5114924;28;20194;-64
2022/04/08 07:47:07;;;;;;;1.85;0.80;;;10.90;88.80;;;;;;5114694;28;20192;-64
2022/04/08 07:49:34;;;;;;;1.95;1.00;;;11.00;87.30;;;;;;5114785;28;20193;-64
2022/04/08 07:52:01;;;;;;;1.50;0.63;;;11.20;87.70;;;;;;5114816;28;20224;-64
2022/04/08 07:54:27;;;;;;;1.67;0.73;;;11.30;85.80;;;;;;5114471;28;20279;-64
2022/04/08 07:56:55;;;;;;;2.38;1.10;;;11.40;85.90;;;;;;5114246;28;20262;-63
2022/04/08 07:59:22;;;;;;;1.70;0.90;;;11.40;86.40;;;;;;5114118;28;20196;-64
2022/04/08 08:01:50;;;;;;;1.92;1.10;;;11.50;86.00;;;;;;5114420;28;20223;-64
2022/04/08 08:04:17;;;;;;;2.13;1.10;;;11.60;85.30;;;;;;5114045;28;20191;-64
2022/04/08 08:06:44;;;;;;;3.25;1.10;;;11.60;82.90;;;;;;5114166;28;20643;-64
2022/04/08 08:09:11;;;;;;;2.88;1.10;;;11.70;83.00;;;;;;5113864;28;20283;-64
2022/04/08 08:11:38;;;;;;;2.05;0.90;;;11.80;82.10;;;;;;5114230;28;20203;-63
2022/04/08 08:14:05;;;;;;;3.35;1.20;;;12.00;83.00;;;;;;5114010;28;20299;-64
2022/04/08 08:16:32;;;;;;;2.83;1.13;;;12.20;82.60;;;;;;5113856;28;20306;-63
2022/04/08 08:19:01;;;;;;;3.65;2.45;;;12.30;81.40;;;;;;5114205;28;20249;-64
2022/04/08 08:21:28;;;;;;;2.70;1.27;;;12.50;80.20;;;;;;5114142;27;20189;-64
2022/04/08 08:23:54;;;;;;;3.15;0.95;;;12.80;81.10;;;;;;5113791;28;20187;-64
2022/04/08 08:26:21;;;;;;;3.88;1.92;;;13.00;80.60;;;;;;5114357;28;20231;-64
2022/04/08 08:28:48;;;;;;;2.22;1.35;;;13.40;79.70;;;;;;5114133;28;20620;-64
2022/04/08 08:31:16;;;;;;;2.97;1.30;;;13.60;79.00;;;;;;5113695;28;20231;-64
2022/04/08 08:33:44;;;;;;;3.20;2.27;;;13.80;78.40;;;;;;5114142;28;20935;-66
2022/04/08 08:36:13;;;;;;;6.63;4.50;;;13.90;76.10;;;;;;5113609;28;20503;-64
2022/04/08 08:38:42;;;;;;;3.47;1.50;;;14.00;76.80;;;;;;5114076;28;20496;-64
2022/04/08 08:41:12;;;;;;;3.20;1.90;;;14.20;76.70;;;;;;5113983;28;20520;-64
2022/04/08 08:43:39;;;;;;;1.80;1.03;;;14.50;76.00;;;;;;5113904;28;20427;-65
2022/04/08 08:46:06;;;;;;;1.80;0.80;;;14.70;74.50;;;;;;5113977;28;20434;-65
2022/04/08 08:48:35;;;;;;;1.80;0.90;;;15.00;70.20;;;;;;5113841;28;20469;-64
2022/04/08 08:51:03;;;;;;;1.90;0.83;;;15.30;69.00;;;;;;5113991;28;20595;-64
2022/04/08 08:53:33;;;;;;;1.60;0.80;;;15.80;67.80;;;;;;5113550;28;20502;-64
2022/04/08 08:56:01;;;;;;;1.80;0.70;;;16.70;66.90;;;;;;5113768;28;20569;-64
2022/04/08 08:58:29;;;;;;;2.20;1.17;;;17.30;62.90;;;;;;5113760;28;20831;-65
2022/04/08 09:00:56;;;;;;;2.87;1.40;;;17.50;58.80;;;;;;5113823;28;20786;-64
2022/04/08 09:03:29;;;;;;;2.07;0.90;;;17.50;57.20;;;;;;5113657;28;20485;-64
2022/04/08 09:06:04;;;;;;;1.80;0.80;;;17.50;56.60;;;;;;5113700;28;20486;-64
2022/04/08 09:08:35;;;;;;;2.13;0.83;;;17.60;55.80;;;;;;5113701;28;20926;-64
2022/04/08 09:11:02;;;;;;;3.27;0.90;;;17.60;55.30;;;;;;5113604;28;20530;-64
2022/04/08 09:13:30;;;;;;;1.80;0.60;;;17.70;54.90;;;;;;5113298;28;20477;-64
2022/04/08 09:15:58;;;;;;;1.50;0.53;;;17.80;54.10;;;;;;5113441;28;20442;-64
2022/04/08 09:18:30;;;;;;;4.33;0.97;;;18.00;53.10;;;;;;5112812;28;20506;-64
2022/04/08 09:20:57;;;;;;;2.50;0.60;;;18.00;52.30;;;;;;5113364;28;20434;-64
2022/04/08 09:23:25;;;;;;;2.37;0.73;;;18.00;52.60;;;;;;5113339;28;20485;-64
2022/04/08 09:26:02;;;;;;;1.40;0.50;;;18.00;51.90;;;;;;5113189;28;20558;-64
2022/04/08 09:28:34;;;;;;;1.70;0.60;;;17.90;50.10;;;;;;5113476;28;20912;-64
2022/04/08 09:31:02;;;;;;;2.00;0.90;;;17.80;50.50;;;;;;5113197;28;20446;-64
2022/04/08 09:33:30;;;;;;;1.97;0.93;;;17.70;49.40;;;;;;5113672;28;20921;-64
2022/04/08 09:35:58;;;;;;;1.40;0.50;;;17.60;49.20;;;;;;5113214;28;20521;-64
2022/04/08 09:38:26;;;;;;;1.93;0.70;;;17.50;50.30;;;;;;5112711;28;20442;-64
2022/04/08 09:41:03;;;;;;;1.80;0.70;;;17.40;50.80;;;;;;5113187;28;20489;-64
2022/04/08 09:43:35;;;;;;;1.40;0.50;;;17.40;50.90;;;;;;5116380;28;20773;-64
2022/04/08 09:46:18;;;;;;;2.60;0.80;;;17.40;50.10;;;;;;5117332;28;20476;-64
2022/04/08 09:48:45;;;;;;;1.90;0.60;;;17.40;50.90;;;;;;5117028;28;20430;-65
2022/04/08 09:51:20;;;;;;;3.17;1.20;;;17.40;49.90;;;;;;5117141;28;20462;-64
2022/04/08 09:53:51;;;;;;;2.00;0.90;;;17.40;49.30;;;;;;5117002;28;20433;-64
2022/04/08 09:56:23;;;;;;;2.00;0.70;;;17.60;50.50;;;;;;5116978;28;20479;-64
2022/04/08 09:58:56;;;;;;;2.33;0.90;;;17.90;50.00;;;;;;5116868;28;20458;-64
2022/04/08 10:01:25;;;;;;;1.50;0.60;;;18.10;48.10;;;;;;5116988;28;20518;-64
2022/04/08 10:03:53;;;;;;;9.00;0.83;;;18.10;47.70;;;;;;5116813;28;20438;-64
2022/04/08 10:06:21;;;;;;;3.00;0.80;;;18.10;47.40;;;;;;5116859;28;20932;-65
2022/04/08 10:08:50;;;;;;;2.07;0.80;;;17.90;46.80;;;;;;5116823;28;20481;-64
2022/04/08 10:11:25;;;;;;;1.87;0.80;;;17.80;47.20;;;;;;5116512;28;20530;-64
2022/04/08 10:14:13;;;;;;;2.00;0.70;;;17.80;47.10;;;;;;5116712;28;20434;-64
2022/04/08 10:16:41;;;;;;;1.80;0.70;;;17.90;48.20;;;;;;5116277;28;20490;-64
2022/04/08 10:19:09;;;;;;;2.50;1.10;;;17.90;47.90;;;;;;5116772;28;20758;-64
2022/04/08 10:21:37;;;;;;;5.10;2.43;;;17.90;46.40;;;;;;5116730;28;20462;-65
2022/04/08 10:24:10;;;;;;;8.77;6.87;;;17.80;45.00;;;;;;5116408;28;20948;-64
2022/04/08 10:26:57;;;;;;;4.33;3.17;;;17.30;45.20;;;;;;5116354;28;20941;-64
2022/04/08 10:29:24;;;;;;;2.00;0.97;;;17.10;47.10;;;;;;5116794;28;20434;-64
2022/04/08 10:32:02;;;;;;;11.83;7.53;;;17.00;48.60;;;;;;5116409;28;20437;-64
2022/04/08 10:34:32;;;;;;;2.17;1.03;;;16.90;47.50;;;;;;5116577;28;20438;-64
2022/04/08 10:37:00;;;;;;;2.77;0.83;;;16.80;46.90;;;;;;5116296;28;20478;-64
2022/04/08 10:39:27;;;;;;;2.40;0.70;;;16.60;47.80;;;;;;5116253;28;20470;-69
2022/04/08 10:41:58;;;;;;;2.10;0.80;;;16.50;48.80;;;;;;5115986;28;20793;-64
2022/04/08 10:44:33;;;;;;;2.10;1.30;;;16.60;49.40;;;;;;5116266;28;20525;-65
2022/04/08 10:47:03;;;;;;;1.83;0.80;;;16.70;50.30;;;;;;5115879;28;20490;-65
2022/04/08 10:49:31;;;;;;;2.00;0.90;;;16.70;51.50;;;;;;5116103;28;20434;-64
2022/04/08 10:51:58;;;;;;;3.10;0.80;;;16.70;50.80;;;;;;5116151;28;20478;-66
2022/04/08 10:54:35;;;;;;;3.20;2.27;;;16.90;51.00;;;;;;5115274;28;20525;-64
2022/04/08 10:57:04;;;;;;;3.13;1.70;;;17.10;49.80;;;;;;5116046;28;21010;-64
2022/04/08 10:59:31;;;;;;;1.67;0.80;;;17.30;48.10;;;;;;5116000;28;20457;-65
2022/04/08 11:02:05;;;;;;;6.83;2.00;;;17.60;48.60;;;;;;5115602;28;20474;-63
2022/04/08 11:04:33;;;;;;;2.00;1.10;;;18.20;49.40;;;;;;5115669;28;20911;-63
2022/04/08 11:07:05;;;;;;;3.60;2.00;;;18.30;46.90;;;;;;5115140;28;20517;-64
2022/04/08 11:09:33;;;;;;;1.87;0.60;;;18.50;47.30;;;;;;5115591;28;20760;-64
2022/04/08 11:12:00;;;;;;;1.93;0.70;;;18.60;45.90;;;;;;5105720;28;20463;-64
2022/04/08 11:14:30;;;;;;;1.60;0.70;;;18.90;48.10;;;;;;5097586;28;20430;-64
2022/04/08 11:16:57;;;;;;;2.20;0.90;;;19.30;47.60;;;;;;5114787;28;20517;-64
2022/04/08 11:19:25;;;;;;;1.60;0.70;;;19.50;44.60;;;;;;5113104;28;20817;-64
2022/04/08 11:21:52;;;;;;;1.70;0.70;;;19.20;44.30;;;;;;5097312;28;20522;-64
2022/04/08 11:24:19;;;;;;;1.63;0.80;;;19.20;44.50;;;;;;5094530;28;20529;-64
2022/04/08 11:26:49;;;;;;;1.50;0.60;;;19.50;44.90;;;;;;5094615;28;20526;-65
2022/04/08 11:29:22;;;;;;;1.50;0.73;;;20.00;45.50;;;;;;5089600;28;20516;-64
2022/04/08 11:31:52;;;;;;;3.90;0.70;;;20.40;45.00;;;;;;5094010;28;20443;-65
2022/04/08 11:34:19;;;;;;;1.50;0.60;;;20.60;44.10;;;;;;5073897;28;20436;-65
2022/04/08 11:36:47;;;;;;;1.50;0.60;;;20.70;43.20;;;;;;5084509;28;20494;-65
2022/04/08 11:39:21;;;;;;;1.80;0.70;;;20.60;41.40;;;;;;5089727;28;20446;-64
2022/04/08 11:41:52;;;;;;;1.70;0.70;;;20.40;42.70;;;;;;5090485;28;20486;-64
2022/04/08 11:44:19;;;;;;;1.70;0.80;;;20.20;43.60;;;;;;5092741;28;20423;-64
2022/04/08 11:46:47;;;;;;;1.97;0.67;;;19.90;42.50;;;;;;5093271;28;20431;-64
2022/04/08 11:49:15;;;;;;;3.13;1.73;;;19.50;43.60;;;;;;5093951;28;20901;-64
2022/04/08 11:51:42;;;;;;;1.60;0.70;;;19.40;45.00;;;;;;5098237;28;20473;-64
2022/04/08 11:54:09;;;;;;;2.07;0.80;;;19.40;46.40;;;;;;5114162;28;20454;-64
2022/04/08 11:56:37;;;;;;;3.00;1.00;;;19.60;48.00;;;;;;5114570;28;20480;-65
2022/04/08 11:59:11;;;;;;;1.70;0.73;;;19.90;46.30;;;;;;5114439;27;20477;-65
2022/04/08 12:01:40;;;;;;;2.30;0.70;;;19.90;43.80;;;;;;5114780;28;20474;-64
2022/04/08 12:04:09;;;;;;;2.23;0.93;;;19.80;43.70;;;;;;5114556;28;20430;-64
2022/04/08 12:06:41;;;;;;;1.80;1.00;;;19.70;42.70;;;;;;5113696;28;20491;-64
2022/04/08 12:09:08;;;;;;;1.80;0.90;;;19.60;42.20;;;;;;5114376;28;20426;-64
2022/04/08 12:11:36;;;;;;;2.10;0.60;;;19.40;44.30;;;;;;5114253;28;20430;-64
2022/04/08 12:14:06;;;;;;;1.60;0.60;;;19.60;45.30;;;;;;5114590;27;20448;-64
2022/04/08 12:16:33;;;;;;;1.70;0.60;;;19.80;45.20;;;;;;5114285;28;20435;-64
2022/04/08 12:19:02;;;;;;;2.80;0.70;;;20.30;47.10;;;;;;5114494;28;20558;-64
2022/04/08 12:21:30;;;;;;;3.20;0.70;;;20.80;44.30;;;;;;5114475;27;20764;-64
2022/04/08 12:24:01;;;;;;;3.00;0.60;;;20.90;42.30;;;;;;5114410;28;20487;-64
2022/04/08 12:26:29;;;;;;;1.80;0.70;;;21.10;45.90;;;;;;5114164;28;20430;-64
2022/04/08 12:29:09;;;;;;;1.50;0.50;;;21.70;44.60;;;;;;5114154;28;20430;-64
2022/04/08 12:31:46;;;;;;;2.97;0.50;;;22.20;43.80;;;;;;5113714;28;20511;-65
2022/04/08 12:34:14;;;;;;;1.60;0.50;;;22.70;44.20;;;;;;5090328;28;20894;-65
2022/04/08 12:36:41;;;;;;;3.33;0.60;;;22.90;37.80;;;;;;5092975;28;20509;-64
2022/04/08 12:39:11;;;;;;;1.53;0.53;;;22.50;37.70;;;;;;5092527;28;20485;-64
2022/04/08 12:41:40;;;;;;;3.10;0.60;;;22.40;37.50;;;;;;5093029;28;20434;-64
2022/04/08 12:44:08;;;;;;;1.50;0.50;;;22.40;37.70;;;;;;5092793;28;20431;-65
2022/04/08 12:46:35;;;;;;;1.70;0.60;;;22.40;37.90;;;;;;5092631;28;20423;-65
2022/04/08 12:49:02;;;;;;;1.90;0.60;;;22.20;36.90;;;;;;5092869;28;20936;-64
2022/04/08 12:51:29;;;;;;;1.90;0.70;;;22.20;36.50;;;;;;5092965;28;20528;-64
2022/04/08 12:53:57;;;;;;;2.83;0.60;;;22.00;36.30;;;;;;5092771;28;20432;-64